Terminal Aerodrome Forecast
Issued by NWS

Home | Current Version | Previous Version | Text Only | Print | Product List | Glossary On
Versions: 1 2 3 4 5 6 7 8 9 10 11 12 13 14 15 16 17 18 19
000
FTUS43 KMQT 240533
TAFIWD
TAF
KIWD 240533Z 2406/2506 18007KT P6SM SCT030 OVC050
     FM240900 21008KT 4SM -SHRA OVC025
     FM241300 24009KT P6SM BKN050
     FM241400 25009KT P6SM SCT090
     FM241800 27010G18KT P6SM FEW110
      AMD LTD TO CLD VIS AND WIND=

USA.gov is the U.S. government's official web portal to all federal, state and local government web resources and services.